KRZN

Burnett County Airport

Siren, Wisconsin, USA
METAR KRZN 182215Z AUTO 09006KT 10SM BKN110 26/11 A3001 RMK AO2 T02550114
Observed Flight Rules
Jun-18 @ 22:15 UTC (23 minutes ago) Visual Flight Rules
Wind Visibility Clouds
90° at 6 knots 10 miles
  • Broken at 11,000' AGL
Temperatures Readings
Current 26°C / 79°F
Dewpoint 11°C / 52°F
Humidity 39%
Altimeter 30.01" Hg
Pressure 1016 hPa
Elevation 301
METAR KRZN 182215Z AUTO 09006KT 10SM BKN110 26/11 A3001 RMK AO2 T02550114
Observed Flight Rules
Jun-18 @ 22:15 UTC
(23 minutes ago)
VFR
Wind Visibility
90° at 6 knots 10 miles
Clouds
  • Broken at 11,000' AGL
Temperature Dewpoint
26°C / 79°F 11°C / 52°F
Humidity Altimeter Pressure
39% 30.01" Hg 1016 hPa